createdAt,value
2018-05-16T00:01:15.014Z,58.68
2018-05-16T00:04:20.229Z,58.74
2018-05-16T00:07:25.970Z,58.97
2018-05-16T00:10:31.177Z,59.09
2018-05-16T00:13:37.659Z,59.25
2018-05-16T00:16:43.789Z,59.18
2018-05-16T00:19:49.413Z,59.08
2018-05-16T00:22:54.638Z,59.52
2018-05-16T00:26:01.736Z,59.39
2018-05-16T00:29:06.932Z,59.99
2018-05-16T00:32:12.586Z,59.87
2018-05-16T00:35:18.598Z,59.80
2018-05-16T00:38:25.371Z,60.43
2018-05-16T00:41:31.106Z,60.61
2018-05-16T00:44:36.329Z,60.50
2018-05-16T00:47:41.978Z,60.28
2018-05-16T00:50:59.001Z,60.09
2018-05-16T00:54:03.925Z,60.96
2018-05-16T00:57:09.140Z,60.33
2018-05-16T01:00:14.346Z,60.92
2018-05-16T01:03:20.487Z,60.66
2018-05-16T01:06:26.250Z,60.53
2018-05-16T01:09:31.998Z,60.94
2018-05-16T01:12:38.113Z,61.02
2018-05-16T01:15:44.167Z,60.97
2018-05-16T01:18:50.088Z,60.81
2018-05-16T01:21:56.129Z,61.27
2018-05-16T01:25:02.275Z,60.98
2018-05-16T01:28:08.655Z,61.11
2018-05-16T01:31:14.716Z,60.75
2018-05-16T01:34:20.790Z,61.41
2018-05-16T01:37:27.661Z,61.17
2018-05-16T01:40:33.063Z,60.48
2018-05-16T01:43:38.205Z,60.95
2018-05-16T01:46:43.974Z,61.00
2018-05-16T01:49:49.728Z,60.87
2018-05-16T01:52:55.793Z,61.01
2018-05-16T01:56:01.013Z,61.14
2018-05-16T01:59:06.945Z,60.71
2018-05-16T02:02:12.670Z,60.33
2018-05-16T02:05:17.624Z,60.39
2018-05-16T02:08:24.577Z,60.36
2018-05-16T02:11:30.997Z,60.50
2018-05-16T02:14:36.821Z,60.08
2018-05-16T02:17:42.054Z,60.70
2018-05-16T02:20:47.254Z,60.20
2018-05-16T02:23:53.285Z,59.94
2018-05-16T02:26:59.628Z,60.46
2018-05-16T02:30:05.756Z,60.43
2018-05-16T02:33:10.974Z,60.99
2018-05-16T02:36:16.490Z,60.89
2018-05-16T02:39:21.807Z,60.92
2018-05-16T02:42:26.787Z,60.88
2018-05-16T02:45:32.003Z,60.76
2018-05-16T02:48:37.655Z,60.66
2018-05-16T02:51:42.850Z,61.25
2018-05-16T02:54:48.064Z,61.16
2018-05-16T02:57:53.809Z,61.08
2018-05-16T03:01:00.878Z,60.89
2018-05-16T03:04:06.535Z,60.69
2018-05-16T03:07:11.962Z,60.74
2018-05-16T03:10:18.088Z,60.91
2018-05-16T03:13:23.292Z,61.02
2018-05-16T03:16:28.506Z,60.94
2018-05-16T03:19:35.501Z,61.11
2018-05-16T03:22:41.161Z,61.04
2018-05-16T03:25:47.199Z,61.06
2018-05-16T03:28:53.317Z,61.18
2018-05-16T03:31:59.447Z,61.15
2018-05-16T03:35:05.286Z,61.16
2018-05-16T03:38:11.227Z,61.04
2018-05-16T03:41:17.353Z,61.14
2018-05-16T03:44:23.701Z,61.26
2018-05-16T03:47:29.050Z,61.18
2018-05-16T03:50:35.997Z,61.14
2018-05-16T03:53:41.868Z,61.04
2018-05-16T03:56:47.181Z,60.99
2018-05-16T04:00:03.037Z,60.95
2018-05-16T04:03:19.099Z,60.93
2018-05-16T04:06:25.457Z,60.93
2018-05-16T04:09:30.658Z,60.96
2018-05-16T04:12:36.524Z,61.15
2018-05-16T04:15:41.810Z,61.08
2018-05-16T04:18:47.012Z,60.98
2018-05-16T04:21:52.835Z,60.92
2018-05-16T04:24:58.053Z,60.96
2018-05-16T04:28:03.263Z,60.95
2018-05-16T04:31:08.525Z,61.04
2018-05-16T04:34:14.557Z,61.41
2018-05-16T04:37:20.769Z,62.06
2018-05-16T04:40:26.595Z,61.94
2018-05-16T04:43:31.801Z,61.96
2018-05-16T04:46:37.748Z,61.81
2018-05-16T04:49:43.902Z,61.81
2018-05-16T04:52:49.908Z,61.68
2018-05-16T04:55:56.110Z,61.70
2018-05-16T04:59:02.160Z,61.77
2018-05-16T05:02:09.219Z,61.90
2018-05-16T05:05:14.438Z,61.70
2018-05-16T05:08:19.654Z,61.82
2018-05-16T05:11:24.881Z,61.96
2018-05-16T05:14:30.108Z,62.06
2018-05-16T05:17:35.301Z,62.05
2018-05-16T05:20:40.513Z,62.13
2018-05-16T05:23:47.469Z,62.13
2018-05-16T05:26:53.293Z,62.04
2018-05-16T05:29:59.073Z,62.12
2018-05-16T05:33:04.058Z,62.04
2018-05-16T05:36:09.267Z,61.89
2018-05-16T05:39:14.479Z,61.88
2018-05-16T05:42:20.603Z,62.06
2018-05-16T05:45:26.239Z,62.11
2018-05-16T05:48:32.176Z,62.00
2018-05-16T05:51:38.051Z,61.84
2018-05-16T05:54:43.878Z,61.88
2018-05-16T05:57:49.501Z,61.77
2018-05-16T06:00:55.677Z,62.21
2018-05-16T06:04:00.915Z,62.27
2018-05-16T06:07:06.101Z,62.30
2018-05-16T06:10:11.299Z,62.40
2018-05-16T06:13:16.235Z,62.17
2018-05-16T06:16:21.645Z,62.12
2018-05-16T06:19:26.923Z,62.41
2018-05-16T06:22:34.164Z,62.30
2018-05-16T06:25:39.777Z,62.13
2018-05-16T06:28:45.387Z,62.42
2018-05-16T06:31:51.146Z,62.45
2018-05-16T06:34:57.294Z,62.26
2018-05-16T06:38:02.728Z,62.19
2018-05-16T06:41:08.550Z,62.82
2018-05-16T06:44:13.326Z,62.48
2018-05-16T06:47:19.390Z,62.74
2018-05-16T06:50:25.646Z,62.63
2018-05-16T06:53:31.478Z,63.62
2018-05-16T06:56:38.067Z,63.62
2018-05-16T06:59:43.693Z,63.28
2018-05-16T07:02:48.909Z,63.34
2018-05-16T07:05:54.138Z,63.29
2018-05-16T07:08:59.345Z,63.56
2018-05-16T07:12:06.095Z,63.60
2018-05-16T07:15:11.756Z,63.72
2018-05-16T07:18:17.742Z,63.66
2018-05-16T07:21:23.882Z,63.42
2018-05-16T07:24:29.899Z,63.33
2018-05-16T07:27:36.025Z,63.48
2018-05-16T07:30:42.066Z,63.83
2018-05-16T07:33:48.263Z,63.95
2018-05-16T07:36:53.475Z,63.47
2018-05-16T07:39:58.694Z,63.57
2018-05-16T07:43:04.835Z,63.59
2018-05-16T07:46:10.766Z,63.85
2018-05-16T07:49:15.963Z,64.03
2018-05-16T07:52:21.989Z,63.92
2018-05-16T07:55:27.956Z,63.81
2018-05-16T07:58:33.899Z,63.63
2018-05-16T08:01:39.836Z,63.45
2018-05-16T08:04:45.057Z,63.79
2018-05-16T08:07:50.278Z,63.83
2018-05-16T08:10:55.697Z,63.87
2018-05-16T08:14:01.422Z,63.47
2018-05-16T08:17:06.640Z,63.40
2018-05-16T08:20:11.886Z,63.41
2018-05-16T08:23:17.090Z,63.23
2018-05-16T08:26:23.213Z,63.34
2018-05-16T08:29:28.429Z,63.13
2018-05-16T08:32:34.657Z,63.23
2018-05-16T08:35:40.473Z,63.24
2018-05-16T08:38:45.679Z,63.40
2018-05-16T08:41:51.499Z,63.29
2018-05-16T08:44:57.629Z,63.47
2018-05-16T08:48:03.654Z,63.07
2018-05-16T08:51:08.866Z,63.14
2018-05-16T08:54:14.798Z,62.95
2018-05-16T08:57:20.421Z,62.90
2018-05-16T09:00:27.384Z,62.88
2018-05-16T09:03:32.577Z,62.99
2018-05-16T09:06:37.923Z,62.55
2018-05-16T09:09:44.237Z,62.42
2018-05-16T09:12:50.246Z,62.45
2018-05-16T09:15:57.389Z,61.99
2018-05-16T09:19:03.209Z,62.01
2018-05-16T09:22:09.356Z,61.97
2018-05-16T09:25:15.426Z,61.98
2018-05-16T09:28:21.753Z,61.78
2018-05-16T09:31:27.699Z,61.39
2018-05-16T09:34:33.914Z,61.17
2018-05-16T09:37:39.161Z,61.02
2018-05-16T09:40:45.294Z,61.03
2018-05-16T09:43:50.515Z,60.79
2018-05-16T09:46:55.939Z,60.59
2018-05-16T09:50:01.173Z,60.29
2018-05-16T09:53:07.242Z,60.11
2018-05-16T09:56:13.371Z,59.84
2018-05-16T09:59:18.586Z,59.62
2018-05-16T10:02:23.791Z,59.39
2018-05-16T10:05:29.019Z,59.37
2018-05-16T10:08:34.230Z,59.25
2018-05-16T10:11:39.162Z,59.26
2018-05-16T10:14:45.314Z,59.17
2018-05-16T10:17:51.533Z,58.77
2018-05-16T10:20:57.364Z,58.41
2018-05-16T10:24:02.575Z,57.93
2018-05-16T10:27:07.796Z,57.54
2018-05-16T10:30:14.835Z,57.57
2018-05-16T10:33:20.461Z,57.21
2018-05-16T10:36:25.440Z,57.65
2018-05-16T10:39:31.530Z,57.63
2018-05-16T10:42:37.676Z,57.02
2018-05-16T10:45:43.730Z,57.34
2018-05-16T10:48:49.844Z,56.93
2018-05-16T10:51:55.064Z,56.60
2018-05-16T10:55:00.774Z,56.89
2018-05-16T10:58:06.831Z,57.01
2018-05-16T11:01:13.163Z,56.35
2018-05-16T11:04:18.372Z,56.72
2018-05-16T11:07:24.003Z,56.55
2018-05-16T11:10:29.477Z,56.24
2018-05-16T11:13:34.870Z,56.28
2018-05-16T11:16:40.997Z,56.12
2018-05-16T11:19:47.047Z,56.13
2018-05-16T11:22:52.281Z,55.92
2018-05-16T11:25:58.310Z,55.63
2018-05-16T11:29:04.151Z,55.84
2018-05-16T11:32:10.175Z,55.36
2018-05-16T11:35:16.231Z,55.25
2018-05-16T11:38:22.262Z,55.60
2018-05-16T11:41:28.187Z,54.93
2018-05-16T11:44:33.573Z,55.07
2018-05-16T11:47:40.116Z,54.06
2018-05-16T11:50:45.743Z,55.18
2018-05-16T11:53:51.871Z,54.86
2018-05-16T11:56:57.503Z,54.62
2018-05-16T12:00:03.645Z,54.38
2018-05-16T12:03:08.851Z,54.58
2018-05-16T12:06:13.735Z,53.88
2018-05-16T12:09:19.946Z,53.50
2018-05-16T12:12:26.154Z,53.04
2018-05-16T12:15:31.985Z,52.64
2018-05-16T12:18:38.127Z,50.85
2018-05-16T12:21:44.294Z,51.96
2018-05-16T12:24:49.677Z,51.31
2018-05-16T12:27:54.898Z,52.04
2018-05-16T12:31:00.119Z,50.17
2018-05-16T12:34:05.342Z,49.73
2018-05-16T12:37:11.486Z,51.05
2018-05-16T12:40:17.618Z,50.87
2018-05-16T12:43:37.862Z,50.44
2018-05-16T12:46:43.043Z,50.74
2018-05-16T12:49:48.421Z,50.34
2018-05-16T12:52:54.053Z,49.45
2018-05-16T12:55:59.283Z,47.85
2018-05-16T12:59:04.528Z,49.15
2018-05-16T13:02:10.245Z,49.69
2018-05-16T13:05:15.466Z,49.51
2018-05-16T13:08:21.577Z,49.67
2018-05-16T13:11:26.801Z,50.03
2018-05-16T13:14:32.542Z,49.21
2018-05-16T13:17:38.501Z,49.29
2018-05-16T13:20:44.804Z,48.66
2018-05-16T13:23:50.043Z,49.35
2018-05-16T13:26:55.355Z,48.09
2018-05-16T13:30:01.681Z,48.33
2018-05-16T13:33:07.314Z,48.87
2018-05-16T13:36:12.619Z,47.94
2018-05-16T13:39:18.896Z,48.44
2018-05-16T13:42:24.341Z,48.49
2018-05-16T13:45:29.998Z,48.71
2018-05-16T13:48:35.369Z,47.70
2018-05-16T13:51:40.577Z,48.16
2018-05-16T13:54:45.789Z,47.59
2018-05-16T13:57:51.014Z,48.68
2018-05-16T14:00:56.867Z,47.15
2018-05-16T14:04:02.208Z,47.53
2018-05-16T14:07:08.305Z,47.63
2018-05-16T14:10:13.522Z,47.12
2018-05-16T14:13:19.169Z,48.01
2018-05-16T14:16:24.891Z,48.04
2018-05-16T14:19:30.114Z,47.30
2018-05-16T14:22:35.344Z,47.98
2018-05-16T14:25:41.081Z,47.53
2018-05-16T14:28:46.921Z,47.28
2018-05-16T14:31:52.665Z,47.17
2018-05-16T14:34:58.786Z,47.01
2018-05-16T14:38:03.754Z,46.67
2018-05-16T14:41:09.373Z,46.58
2018-05-16T14:44:14.586Z,47.79
2018-05-16T14:47:19.809Z,47.37
2018-05-16T14:50:25.541Z,47.28
2018-05-16T14:53:30.747Z,47.83
2018-05-16T14:56:36.955Z,47.92
2018-05-16T14:59:42.805Z,47.78
2018-05-16T15:02:48.007Z,47.98
2018-05-16T15:05:53.229Z,48.06
2018-05-16T15:08:59.376Z,47.55
2018-05-16T15:12:04.602Z,47.99
2018-05-16T15:15:09.992Z,47.87
2018-05-16T15:18:16.940Z,48.01
2018-05-16T15:21:22.594Z,47.81
2018-05-16T15:24:28.905Z,47.41
2018-05-16T15:27:35.576Z,47.95
2018-05-16T15:30:40.814Z,46.70
2018-05-16T15:33:46.628Z,47.38
2018-05-16T15:36:52.773Z,46.69
2018-05-16T15:39:58.074Z,46.58
2018-05-16T15:43:03.483Z,46.85
2018-05-16T15:46:08.702Z,46.57
2018-05-16T15:49:14.843Z,46.15
2018-05-16T15:52:20.879Z,45.02
2018-05-16T15:55:27.081Z,46.16
2018-05-16T15:58:33.842Z,46.25
2018-05-16T16:01:39.710Z,46.96
2018-05-16T16:04:45.537Z,47.02
2018-05-16T16:07:51.298Z,46.85
2018-05-16T16:10:56.551Z,46.49
2018-05-16T16:14:02.482Z,46.25
2018-05-16T16:17:08.613Z,47.07
2018-05-16T16:20:14.787Z,47.07
2018-05-16T16:23:20.009Z,46.95
2018-05-16T16:26:26.990Z,47.50
2018-05-16T16:29:32.341Z,47.05
2018-05-16T16:32:37.964Z,47.63
2018-05-16T16:35:43.203Z,48.10
2018-05-16T16:38:50.180Z,47.85
2018-05-16T16:41:55.521Z,47.58
2018-05-16T16:45:01.285Z,46.60
2018-05-16T16:48:06.485Z,47.41
2018-05-16T16:51:12.503Z,47.32
2018-05-16T16:54:18.639Z,47.43
2018-05-16T16:57:24.315Z,47.34
2018-05-16T17:00:29.552Z,47.17
2018-05-16T17:03:35.701Z,47.77
2018-05-16T17:06:42.377Z,48.18
2018-05-16T17:09:48.209Z,48.37
2018-05-16T17:12:53.417Z,48.27
2018-05-16T17:16:00.237Z,48.84
2018-05-16T17:19:06.066Z,49.01
2018-05-16T17:22:12.193Z,49.08
2018-05-16T17:25:19.225Z,49.24
2018-05-16T17:28:25.142Z,49.65
2018-05-16T17:31:33.874Z,49.57
2018-05-16T17:34:40.065Z,49.82
2018-05-16T17:37:45.093Z,50.22
2018-05-16T17:40:50.345Z,50.22
2018-05-16T17:43:57.133Z,50.26
2018-05-16T17:47:03.317Z,50.25
2018-05-16T17:50:10.238Z,50.65
2018-05-16T17:53:15.473Z,50.56
2018-05-16T17:56:21.433Z,50.73
2018-05-16T17:59:26.641Z,51.01
2018-05-16T18:02:32.535Z,51.23
2018-05-16T18:05:37.767Z,51.21
2018-05-16T18:08:43.677Z,51.20
2018-05-16T18:11:49.594Z,51.19
2018-05-16T18:15:12.670Z,51.36
2018-05-16T18:18:18.129Z,51.26
2018-05-16T18:21:24.070Z,51.51
2018-05-16T18:24:29.768Z,51.51
2018-05-16T18:27:36.447Z,51.67
2018-05-16T18:30:42.584Z,51.84
2018-05-16T18:33:47.813Z,51.80
2018-05-16T18:36:53.894Z,52.11
2018-05-16T18:39:59.322Z,52.05
2018-05-16T18:43:04.539Z,52.20
2018-05-16T18:46:10.732Z,52.72
2018-05-16T18:49:16.002Z,52.90
2018-05-16T18:52:21.363Z,52.91
2018-05-16T18:55:27.105Z,52.70
2018-05-16T18:58:32.814Z,52.58
2018-05-16T19:01:38.474Z,52.57
2018-05-16T19:04:43.821Z,52.69
2018-05-16T19:07:49.050Z,52.85
2018-05-16T19:10:54.482Z,52.89
2018-05-16T19:14:00.156Z,53.31
2018-05-16T19:17:06.126Z,53.36
2018-05-16T19:20:11.589Z,53.42
2018-05-16T19:23:16.912Z,53.81
2018-05-16T19:26:21.993Z,53.91
2018-05-16T19:29:28.120Z,54.15
2018-05-16T19:32:33.793Z,54.32
2018-05-16T19:35:39.609Z,54.45
2018-05-16T19:38:46.738Z,54.83
2018-05-16T19:41:53.535Z,54.99
2018-05-16T19:44:58.166Z,55.02
2018-05-16T19:48:03.412Z,55.31
2018-05-16T19:51:09.456Z,55.37
2018-05-16T19:54:15.668Z,55.13
2018-05-16T19:57:21.542Z,55.35
2018-05-16T20:00:26.778Z,55.31
2018-05-16T20:03:32.026Z,55.37
2018-05-16T20:06:37.246Z,55.30
2018-05-16T20:09:42.473Z,55.29
2018-05-16T20:12:49.489Z,55.30
2018-05-16T20:15:55.176Z,55.40
2018-05-16T20:19:01.702Z,55.29
2018-05-16T20:22:07.373Z,55.30
2018-05-16T20:25:12.611Z,55.29
2018-05-16T20:28:18.659Z,55.64
2018-05-16T20:31:23.537Z,55.73
2018-05-16T20:34:30.322Z,55.79
2018-05-16T20:37:35.998Z,55.55
2018-05-16T20:40:41.224Z,55.88
2018-05-16T20:43:48.301Z,55.82
2018-05-16T20:46:53.522Z,55.93
2018-05-16T20:49:58.760Z,55.59
2018-05-16T20:53:04.892Z,55.83
2018-05-16T20:56:10.649Z,55.90
2018-05-16T20:59:17.245Z,55.75
2018-05-16T21:02:22.513Z,56.32
2018-05-16T21:05:29.121Z,56.08
2018-05-16T21:08:34.482Z,56.57
2018-05-16T21:11:41.204Z,56.63
2018-05-16T21:14:47.348Z,56.57
2018-05-16T21:17:53.462Z,56.24
2018-05-16T21:20:59.098Z,56.51
2018-05-16T21:24:05.036Z,56.30
2018-05-16T21:27:09.995Z,56.61
2018-05-16T21:30:15.237Z,57.04
2018-05-16T21:33:20.994Z,57.31
2018-05-16T21:36:26.950Z,57.06
2018-05-16T21:39:32.187Z,57.31
2018-05-16T21:42:38.302Z,57.46
2018-05-16T21:45:43.966Z,57.41
2018-05-16T21:48:49.188Z,57.60
2018-05-16T21:51:55.264Z,57.59
2018-05-16T21:55:01.584Z,57.60
2018-05-16T21:58:06.809Z,57.86
2018-05-16T22:01:12.842Z,57.93
2018-05-16T22:04:18.737Z,58.37
2018-05-16T22:07:24.338Z,58.27
2018-05-16T22:10:30.314Z,58.60
2018-05-16T22:13:35.764Z,58.34
2018-05-16T22:16:41.009Z,58.33
2018-05-16T22:19:46.221Z,58.34
2018-05-16T22:22:52.153Z,58.40
2018-05-16T22:25:59.069Z,59.19
2018-05-16T22:29:05.175Z,59.14
2018-05-16T22:32:16.386Z,59.30
2018-05-16T22:35:28.288Z,59.56
2018-05-16T22:38:39.752Z,59.72
2018-05-16T22:41:51.249Z,59.77
2018-05-16T22:44:57.201Z,59.79
2018-05-16T22:48:03.242Z,59.94
2018-05-16T22:51:09.183Z,60.11
2018-05-16T22:54:14.404Z,60.22
2018-05-16T22:57:19.617Z,60.39
2018-05-16T23:00:24.910Z,60.28
2018-05-16T23:03:31.693Z,60.41
2018-05-16T23:06:38.366Z,60.10
2018-05-16T23:09:43.601Z,60.18
2018-05-16T23:12:49.745Z,60.55
2018-05-16T23:15:56.407Z,60.79
2018-05-16T23:19:02.086Z,60.51
2018-05-16T23:22:07.327Z,61.50
2018-05-16T23:25:12.262Z,61.39
2018-05-16T23:28:18.298Z,61.33
2018-05-16T23:31:24.218Z,61.17
2018-05-16T23:34:30.173Z,60.97
2018-05-16T23:37:36.126Z,61.30
2018-05-16T23:40:41.057Z,61.01
2018-05-16T23:43:47.337Z,61.17
2018-05-16T23:46:52.974Z,61.36
2018-05-16T23:49:59.098Z,61.77
2018-05-16T23:53:04.735Z,61.88
2018-05-16T23:56:10.983Z,62.44
2018-05-16T23:59:17.021Z,62.02
